sensor_id;sensor_type;location;lat;lon;timestamp;P1;durP1;ratioP1;P2;durP2;ratioP2
44810;SDS011;30526;52.184;4.476;2023-04-03T00:02:18;6.60;;;1.70;;
44810;SDS011;30526;52.184;4.476;2023-04-03T00:04:45;3.75;;;1.23;;
44810;SDS011;30526;52.184;4.476;2023-04-03T00:07:11;4.88;;;0.95;;
44810;SDS011;30526;52.184;4.476;2023-04-03T00:09:39;3.83;;;1.65;;
44810;SDS011;30526;52.184;4.476;2023-04-03T00:12:05;1.88;;;1.23;;
44810;SDS011;30526;52.184;4.476;2023-04-03T00:14:31;5.47;;;1.70;;
44810;SDS011;30526;52.184;4.476;2023-04-03T00:16:57;3.53;;;1.10;;
44810;SDS011;30526;52.184;4.476;2023-04-03T00:19:23;2.55;;;1.30;;
44810;SDS011;30526;52.184;4.476;2023-04-03T00:21:49;2.83;;;1.20;;
44810;SDS011;30526;52.184;4.476;2023-04-03T00:24:15;2.45;;;1.50;;
44810;SDS011;30526;52.184;4.476;2023-04-03T00:26:41;2.65;;;1.30;;
44810;SDS011;30526;52.184;4.476;2023-04-03T00:29:07;3.42;;;1.48;;
44810;SDS011;30526;52.184;4.476;2023-04-03T00:31:34;3.08;;;1.40;;
44810;SDS011;30526;52.184;4.476;2023-04-03T00:34:00;3.30;;;1.50;;
44810;SDS011;30526;52.184;4.476;2023-04-03T00:36:26;4.45;;;1.45;;
44810;SDS011;30526;52.184;4.476;2023-04-03T00:38:52;2.95;;;1.08;;
44810;SDS011;30526;52.184;4.476;2023-04-03T00:41:18;1.67;;;1.20;;
44810;SDS011;30526;52.184;4.476;2023-04-03T00:43:44;6.00;;;0.93;;
44810;SDS011;30526;52.184;4.476;2023-04-03T00:46:10;4.70;;;1.40;;
44810;SDS011;30526;52.184;4.476;2023-04-03T00:48:46;2.20;;;1.13;;
44810;SDS011;30526;52.184;4.476;2023-04-03T00:51:14;3.15;;;1.25;;
44810;SDS011;30526;52.184;4.476;2023-04-03T00:53:43;5.43;;;1.17;;
44810;SDS011;30526;52.184;4.476;2023-04-03T00:56:11;3.22;;;1.20;;
44810;SDS011;30526;52.184;4.476;2023-04-03T01:01:24;1.80;;;1.10;;
44810;SDS011;30526;52.184;4.476;2023-04-03T01:03:50;4.70;;;1.30;;
44810;SDS011;30526;52.184;4.476;2023-04-03T01:06:17;2.30;;;1.10;;
44810;SDS011;30526;52.184;4.476;2023-04-03T01:08:45;5.03;;;1.60;;
44810;SDS011;30526;52.184;4.476;2023-04-03T01:11:13;2.58;;;1.20;;
44810;SDS011;30526;52.184;4.476;2023-04-03T01:13:39;2.20;;;1.15;;
44810;SDS011;30526;52.184;4.476;2023-04-03T01:16:06;5.65;;;1.50;;
44810;SDS011;30526;52.184;4.476;2023-04-03T01:18:32;1.47;;;1.00;;
44810;SDS011;30526;52.184;4.476;2023-04-03T01:23:48;2.53;;;1.10;;
44810;SDS011;30526;52.184;4.476;2023-04-03T01:26:16;5.53;;;1.58;;
44810;SDS011;30526;52.184;4.476;2023-04-03T01:28:42;4.10;;;1.48;;
44810;SDS011;30526;52.184;4.476;2023-04-03T01:33:35;2.20;;;1.20;;
44810;SDS011;30526;52.184;4.476;2023-04-03T01:36:01;3.00;;;0.87;;
44810;SDS011;30526;52.184;4.476;2023-04-03T01:38:28;2.50;;;1.20;;
44810;SDS011;30526;52.184;4.476;2023-04-03T01:40:54;1.97;;;0.87;;
44810;SDS011;30526;52.184;4.476;2023-04-03T01:43:20;3.20;;;1.50;;
44810;SDS011;30526;52.184;4.476;2023-04-03T01:45:46;2.15;;;1.02;;
44810;SDS011;30526;52.184;4.476;2023-04-03T01:48:14;4.38;;;1.63;;
44810;SDS011;30526;52.184;4.476;2023-04-03T01:50:40;4.30;;;1.50;;
44810;SDS011;30526;52.184;4.476;2023-04-03T01:53:06;3.53;;;1.48;;
44810;SDS011;30526;52.184;4.476;2023-04-03T01:55:32;3.63;;;1.15;;
44810;SDS011;30526;52.184;4.476;2023-04-03T01:57:59;7.78;;;1.98;;
44810;SDS011;30526;52.184;4.476;2023-04-03T02:00:25;5.95;;;1.42;;
44810;SDS011;30526;52.184;4.476;2023-04-03T02:02:51;3.42;;;1.35;;
44810;SDS011;30526;52.184;4.476;2023-04-03T02:05:17;4.75;;;1.48;;
44810;SDS011;30526;52.184;4.476;2023-04-03T02:07:43;4.05;;;1.38;;
44810;SDS011;30526;52.184;4.476;2023-04-03T02:10:10;5.87;;;1.23;;
44810;SDS011;30526;52.184;4.476;2023-04-03T02:12:36;2.63;;;1.52;;
44810;SDS011;30526;52.184;4.476;2023-04-03T02:15:02;3.70;;;1.23;;
44810;SDS011;30526;52.184;4.476;2023-04-03T02:17:28;4.50;;;1.30;;
44810;SDS011;30526;52.184;4.476;2023-04-03T02:19:55;1.27;;;1.17;;
44810;SDS011;30526;52.184;4.476;2023-04-03T02:22:22;3.83;;;1.27;;
44810;SDS011;30526;52.184;4.476;2023-04-03T02:24:48;2.65;;;1.50;;
44810;SDS011;30526;52.184;4.476;2023-04-03T02:27:17;5.07;;;1.60;;
44810;SDS011;30526;52.184;4.476;2023-04-03T02:29:43;2.67;;;1.60;;
44810;SDS011;30526;52.184;4.476;2023-04-03T02:32:10;5.10;;;1.95;;
44810;SDS011;30526;52.184;4.476;2023-04-03T02:34:36;3.92;;;1.70;;
44810;SDS011;30526;52.184;4.476;2023-04-03T02:37:02;3.50;;;1.67;;
44810;SDS011;30526;52.184;4.476;2023-04-03T02:39:29;4.15;;;1.20;;
44810;SDS011;30526;52.184;4.476;2023-04-03T02:41:55;3.63;;;1.60;;
44810;SDS011;30526;52.184;4.476;2023-04-03T02:44:21;6.65;;;1.67;;
44810;SDS011;30526;52.184;4.476;2023-04-03T02:46:48;3.10;;;0.93;;
44810;SDS011;30526;52.184;4.476;2023-04-03T02:49:14;5.13;;;1.63;;
44810;SDS011;30526;52.184;4.476;2023-04-03T02:51:41;3.38;;;1.60;;
44810;SDS011;30526;52.184;4.476;2023-04-03T02:54:07;3.17;;;1.48;;
44810;SDS011;30526;52.184;4.476;2023-04-03T02:56:33;2.42;;;1.50;;
44810;SDS011;30526;52.184;4.476;2023-04-03T02:58:59;2.23;;;1.03;;
44810;SDS011;30526;52.184;4.476;2023-04-03T03:01:25;7.85;;;1.90;;
44810;SDS011;30526;52.184;4.476;2023-04-03T03:03:56;4.78;;;1.60;;
44810;SDS011;30526;52.184;4.476;2023-04-03T03:06:22;4.82;;;2.25;;
44810;SDS011;30526;52.184;4.476;2023-04-03T03:08:48;4.22;;;2.15;;
44810;SDS011;30526;52.184;4.476;2023-04-03T03:11:15;3.63;;;1.58;;
44810;SDS011;30526;52.184;4.476;2023-04-03T03:13:41;3.28;;;1.55;;
44810;SDS011;30526;52.184;4.476;2023-04-03T03:16:07;5.00;;;1.67;;
44810;SDS011;30526;52.184;4.476;2023-04-03T03:18:33;2.65;;;1.50;;
44810;SDS011;30526;52.184;4.476;2023-04-03T03:21:01;2.07;;;1.20;;
44810;SDS011;30526;52.184;4.476;2023-04-03T03:23:28;5.15;;;1.02;;
44810;SDS011;30526;52.184;4.476;2023-04-03T03:26:04;2.38;;;1.17;;
44810;SDS011;30526;52.184;4.476;2023-04-03T03:28:31;1.83;;;1.25;;
44810;SDS011;30526;52.184;4.476;2023-04-03T03:30:57;3.78;;;1.38;;
44810;SDS011;30526;52.184;4.476;2023-04-03T03:33:24;3.25;;;1.30;;
44810;SDS011;30526;52.184;4.476;2023-04-03T03:35:51;2.30;;;1.17;;
44810;SDS011;30526;52.184;4.476;2023-04-03T03:38:17;9.68;;;2.00;;
44810;SDS011;30526;52.184;4.476;2023-04-03T03:40:43;5.85;;;2.05;;
44810;SDS011;30526;52.184;4.476;2023-04-03T03:43:09;4.57;;;1.67;;
44810;SDS011;30526;52.184;4.476;2023-04-03T03:45:35;4.68;;;2.30;;
44810;SDS011;30526;52.184;4.476;2023-04-03T03:48:02;4.15;;;2.00;;
44810;SDS011;30526;52.184;4.476;2023-04-03T03:50:28;2.28;;;1.42;;
44810;SDS011;30526;52.184;4.476;2023-04-03T03:52:54;4.03;;;1.98;;
44810;SDS011;30526;52.184;4.476;2023-04-03T03:55:20;3.88;;;2.10;;
44810;SDS011;30526;52.184;4.476;2023-04-03T03:57:46;3.20;;;1.35;;
44810;SDS011;30526;52.184;4.476;2023-04-03T04:00:12;3.28;;;1.60;;
44810;SDS011;30526;52.184;4.476;2023-04-03T04:02:38;3.42;;;1.52;;
44810;SDS011;30526;52.184;4.476;2023-04-03T04:05:05;4.95;;;2.15;;
44810;SDS011;30526;52.184;4.476;2023-04-03T04:07:31;5.75;;;1.92;;
44810;SDS011;30526;52.184;4.476;2023-04-03T04:09:57;4.15;;;1.83;;
44810;SDS011;30526;52.184;4.476;2023-04-03T04:12:23;4.30;;;1.80;;
44810;SDS011;30526;52.184;4.476;2023-04-03T04:14:49;3.85;;;2.15;;
44810;SDS011;30526;52.184;4.476;2023-04-03T04:17:15;5.80;;;2.05;;
44810;SDS011;30526;52.184;4.476;2023-04-03T04:19:41;4.93;;;2.05;;
44810;SDS011;30526;52.184;4.476;2023-04-03T04:22:07;7.15;;;2.10;;
44810;SDS011;30526;52.184;4.476;2023-04-03T04:24:33;6.03;;;2.22;;
44810;SDS011;30526;52.184;4.476;2023-04-03T04:26:59;7.40;;;1.90;;
44810;SDS011;30526;52.184;4.476;2023-04-03T04:29:25;4.35;;;1.98;;
44810;SDS011;30526;52.184;4.476;2023-04-03T04:31:51;6.40;;;2.03;;
44810;SDS011;30526;52.184;4.476;2023-04-03T04:34:17;8.43;;;2.10;;
44810;SDS011;30526;52.184;4.476;2023-04-03T04:36:44;4.22;;;2.20;;
44810;SDS011;30526;52.184;4.476;2023-04-03T04:39:10;6.13;;;2.45;;
44810;SDS011;30526;52.184;4.476;2023-04-03T04:41:36;6.03;;;1.83;;
44810;SDS011;30526;52.184;4.476;2023-04-03T04:44:02;7.05;;;2.25;;
44810;SDS011;30526;52.184;4.476;2023-04-03T04:46:28;5.70;;;2.40;;
44810;SDS011;30526;52.184;4.476;2023-04-03T04:48:54;8.88;;;2.22;;
44810;SDS011;30526;52.184;4.476;2023-04-03T04:51:20;5.93;;;2.55;;
44810;SDS011;30526;52.184;4.476;2023-04-03T04:53:46;7.05;;;2.20;;
44810;SDS011;30526;52.184;4.476;2023-04-03T04:56:12;6.13;;;2.42;;
44810;SDS011;30526;52.184;4.476;2023-04-03T04:58:38;8.55;;;2.28;;
44810;SDS011;30526;52.184;4.476;2023-04-03T05:01:05;4.57;;;2.00;;
44810;SDS011;30526;52.184;4.476;2023-04-03T05:03:32;6.65;;;2.30;;
44810;SDS011;30526;52.184;4.476;2023-04-03T05:05:58;6.05;;;2.40;;
44810;SDS011;30526;52.184;4.476;2023-04-03T05:08:24;8.73;;;2.67;;
44810;SDS011;30526;52.184;4.476;2023-04-03T05:10:50;8.50;;;2.42;;
44810;SDS011;30526;52.184;4.476;2023-04-03T05:15:45;10.00;;;2.67;;
44810;SDS011;30526;52.184;4.476;2023-04-03T05:20:37;6.23;;;1.87;;
44810;SDS011;30526;52.184;4.476;2023-04-03T05:23:03;5.93;;;2.75;;
44810;SDS011;30526;52.184;4.476;2023-04-03T05:25:29;4.32;;;1.80;;
44810;SDS011;30526;52.184;4.476;2023-04-03T05:27:55;9.32;;;2.70;;
44810;SDS011;30526;52.184;4.476;2023-04-03T05:30:21;4.82;;;2.42;;
44810;SDS011;30526;52.184;4.476;2023-04-03T05:32:52;7.07;;;2.22;;
44810;SDS011;30526;52.184;4.476;2023-04-03T05:35:18;6.70;;;2.30;;
44810;SDS011;30526;52.184;4.476;2023-04-03T05:37:44;8.57;;;2.20;;
44810;SDS011;30526;52.184;4.476;2023-04-03T05:40:11;8.05;;;2.65;;
44810;SDS011;30526;52.184;4.476;2023-04-03T05:42:37;5.45;;;2.42;;
44810;SDS011;30526;52.184;4.476;2023-04-03T05:45:03;3.35;;;2.30;;
44810;SDS011;30526;52.184;4.476;2023-04-03T05:47:29;7.75;;;2.63;;
44810;SDS011;30526;52.184;4.476;2023-04-03T05:49:55;4.82;;;2.42;;
44810;SDS011;30526;52.184;4.476;2023-04-03T05:54:48;4.40;;;2.35;;
44810;SDS011;30526;52.184;4.476;2023-04-03T05:57:15;6.18;;;2.65;;
44810;SDS011;30526;52.184;4.476;2023-04-03T05:59:42;7.28;;;2.25;;
44810;SDS011;30526;52.184;4.476;2023-04-03T06:02:19;7.90;;;2.67;;
44810;SDS011;30526;52.184;4.476;2023-04-03T06:04:46;6.32;;;2.50;;
44810;SDS011;30526;52.184;4.476;2023-04-03T06:07:22;6.00;;;1.97;;
44810;SDS011;30526;52.184;4.476;2023-04-03T06:09:49;6.68;;;2.28;;
44810;SDS011;30526;52.184;4.476;2023-04-03T06:12:16;7.95;;;2.53;;
44810;SDS011;30526;52.184;4.476;2023-04-03T06:14:43;3.53;;;1.90;;
44810;SDS011;30526;52.184;4.476;2023-04-03T06:17:10;4.45;;;2.00;;
44810;SDS011;30526;52.184;4.476;2023-04-03T06:19:37;5.40;;;1.70;;
44810;SDS011;30526;52.184;4.476;2023-04-03T06:22:03;5.63;;;2.30;;
44810;SDS011;30526;52.184;4.476;2023-04-03T06:24:31;7.65;;;2.92;;
44810;SDS011;30526;52.184;4.476;2023-04-03T06:26:58;8.10;;;2.55;;
44810;SDS011;30526;52.184;4.476;2023-04-03T06:29:25;6.22;;;2.63;;
44810;SDS011;30526;52.184;4.476;2023-04-03T06:31:51;7.47;;;2.20;;
44810;SDS011;30526;52.184;4.476;2023-04-03T06:34:17;4.55;;;2.10;;
44810;SDS011;30526;52.184;4.476;2023-04-03T06:36:44;7.10;;;2.50;;
44810;SDS011;30526;52.184;4.476;2023-04-03T06:39:12;3.80;;;1.98;;
44810;SDS011;30526;52.184;4.476;2023-04-03T06:41:39;4.78;;;2.28;;
44810;SDS011;30526;52.184;4.476;2023-04-03T06:44:05;7.53;;;2.40;;
44810;SDS011;30526;52.184;4.476;2023-04-03T06:46:32;8.35;;;2.33;;
44810;SDS011;30526;52.184;4.476;2023-04-03T06:48:59;6.50;;;2.13;;
44810;SDS011;30526;52.184;4.476;2023-04-03T06:51:26;7.53;;;2.45;;
44810;SDS011;30526;52.184;4.476;2023-04-03T06:56:18;3.92;;;1.90;;
44810;SDS011;30526;52.184;4.476;2023-04-03T06:58:45;5.32;;;1.63;;
44810;SDS011;30526;52.184;4.476;2023-04-03T07:01:12;3.58;;;2.00;;
44810;SDS011;30526;52.184;4.476;2023-04-03T07:03:39;6.00;;;1.77;;
44810;SDS011;30526;52.184;4.476;2023-04-03T07:06:06;8.53;;;2.23;;
44810;SDS011;30526;52.184;4.476;2023-04-03T07:08:33;7.03;;;1.98;;
44810;SDS011;30526;52.184;4.476;2023-04-03T07:10:59;6.82;;;1.92;;
44810;SDS011;30526;52.184;4.476;2023-04-03T07:13:26;4.30;;;1.77;;
44810;SDS011;30526;52.184;4.476;2023-04-03T07:15:52;5.97;;;2.50;;
44810;SDS011;30526;52.184;4.476;2023-04-03T07:18:18;7.03;;;2.42;;
44810;SDS011;30526;52.184;4.476;2023-04-03T07:20:45;6.30;;;2.40;;
44810;SDS011;30526;52.184;4.476;2023-04-03T07:23:11;6.32;;;2.58;;
44810;SDS011;30526;52.184;4.476;2023-04-03T07:25:37;5.88;;;2.38;;
44810;SDS011;30526;52.184;4.476;2023-04-03T07:28:03;4.10;;;2.17;;
44810;SDS011;30526;52.184;4.476;2023-04-03T07:30:29;10.73;;;2.65;;
44810;SDS011;30526;52.184;4.476;2023-04-03T07:32:55;9.65;;;2.45;;
44810;SDS011;30526;52.184;4.476;2023-04-03T07:35:21;6.35;;;2.05;;
44810;SDS011;30526;52.184;4.476;2023-04-03T07:37:47;6.40;;;2.08;;
44810;SDS011;30526;52.184;4.476;2023-04-03T07:40:13;6.25;;;2.17;;
44810;SDS011;30526;52.184;4.476;2023-04-03T07:42:39;4.80;;;2.03;;
44810;SDS011;30526;52.184;4.476;2023-04-03T07:45:05;4.97;;;2.15;;
44810;SDS011;30526;52.184;4.476;2023-04-03T07:47:32;9.43;;;2.20;;
44810;SDS011;30526;52.184;4.476;2023-04-03T07:49:58;9.38;;;2.33;;
44810;SDS011;30526;52.184;4.476;2023-04-03T07:52:24;9.30;;;2.03;;
44810;SDS011;30526;52.184;4.476;2023-04-03T07:54:50;6.23;;;1.87;;
44810;SDS011;30526;52.184;4.476;2023-04-03T07:57:16;7.30;;;2.05;;
44810;SDS011;30526;52.184;4.476;2023-04-03T07:59:42;5.82;;;2.13;;
44810;SDS011;30526;52.184;4.476;2023-04-03T08:02:11;6.00;;;2.20;;
44810;SDS011;30526;52.184;4.476;2023-04-03T08:04:38;10.25;;;2.17;;
44810;SDS011;30526;52.184;4.476;2023-04-03T08:07:04;4.27;;;2.00;;
44810;SDS011;30526;52.184;4.476;2023-04-03T08:09:30;7.68;;;1.67;;
44810;SDS011;30526;52.184;4.476;2023-04-03T08:11:57;9.02;;;1.75;;
44810;SDS011;30526;52.184;4.476;2023-04-03T08:14:23;5.70;;;1.90;;
44810;SDS011;30526;52.184;4.476;2023-04-03T08:16:49;5.38;;;1.92;;
44810;SDS011;30526;52.184;4.476;2023-04-03T08:19:15;5.97;;;1.60;;
44810;SDS011;30526;52.184;4.476;2023-04-03T08:24:09;3.83;;;1.80;;
44810;SDS011;30526;52.184;4.476;2023-04-03T08:26:35;8.15;;;2.22;;
44810;SDS011;30526;52.184;4.476;2023-04-03T08:29:01;4.35;;;1.80;;
44810;SDS011;30526;52.184;4.476;2023-04-03T08:31:27;9.45;;;2.42;;
44810;SDS011;30526;52.184;4.476;2023-04-03T08:33:53;7.75;;;1.67;;
44810;SDS011;30526;52.184;4.476;2023-04-03T08:36:21;5.70;;;1.83;;
44810;SDS011;30526;52.184;4.476;2023-04-03T08:41:14;5.82;;;1.65;;
44810;SDS011;30526;52.184;4.476;2023-04-03T08:46:46;4.97;;;1.58;;
44810;SDS011;30526;52.184;4.476;2023-04-03T08:49:20;7.22;;;2.10;;
44810;SDS011;30526;52.184;4.476;2023-04-03T08:51:48;5.32;;;1.75;;
44810;SDS011;30526;52.184;4.476;2023-04-03T08:54:30;2.72;;;1.23;;
44810;SDS011;30526;52.184;4.476;2023-04-03T08:56:57;4.30;;;1.98;;
44810;SDS011;30526;52.184;4.476;2023-04-03T08:59:31;3.83;;;1.40;;
44810;SDS011;30526;52.184;4.476;2023-04-03T09:01:59;9.77;;;1.95;;
44810;SDS011;30526;52.184;4.476;2023-04-03T09:04:27;4.70;;;1.60;;
44810;SDS011;30526;52.184;4.476;2023-04-03T09:06:55;7.68;;;1.45;;
44810;SDS011;30526;52.184;4.476;2023-04-03T09:09:45;6.65;;;1.85;;
44810;SDS011;30526;52.184;4.476;2023-04-03T09:17:11;3.30;;;1.48;;
44810;SDS011;30526;52.184;4.476;2023-04-03T09:19:47;3.58;;;1.52;;
44810;SDS011;30526;52.184;4.476;2023-04-03T09:22:16;6.30;;;1.65;;
44810;SDS011;30526;52.184;4.476;2023-04-03T09:24:47;2.78;;;1.15;;
44810;SDS011;30526;52.184;4.476;2023-04-03T09:27:16;6.90;;;1.80;;
44810;SDS011;30526;52.184;4.476;2023-04-03T09:29:43;3.30;;;0.95;;
44810;SDS011;30526;52.184;4.476;2023-04-03T09:34:53;5.10;;;1.55;;
44810;SDS011;30526;52.184;4.476;2023-04-03T09:39:50;5.15;;;1.20;;
44810;SDS011;30526;52.184;4.476;2023-04-03T09:42:18;3.83;;;1.40;;
44810;SDS011;30526;52.184;4.476;2023-04-03T09:44:52;3.15;;;1.13;;
44810;SDS011;30526;52.184;4.476;2023-04-03T09:47:26;2.40;;;1.10;;
44810;SDS011;30526;52.184;4.476;2023-04-03T09:52:38;4.88;;;1.30;;
44810;SDS011;30526;52.184;4.476;2023-04-03T09:55:06;3.33;;;0.98;;
44810;SDS011;30526;52.184;4.476;2023-04-03T10:00:00;3.78;;;1.30;;
44810;SDS011;30526;52.184;4.476;2023-04-03T10:05:01;1.38;;;1.02;;
44810;SDS011;30526;52.184;4.476;2023-04-03T10:09:57;2.20;;;0.90;;
44810;SDS011;30526;52.184;4.476;2023-04-03T10:12:25;1.45;;;0.90;;
44810;SDS011;30526;52.184;4.476;2023-04-03T10:15:00;1.52;;;0.82;;
44810;SDS011;30526;52.184;4.476;2023-04-03T10:32:29;4.45;;;1.20;;
44810;SDS011;30526;52.184;4.476;2023-04-03T10:35:01;2.60;;;1.25;;
44810;SDS011;30526;52.184;4.476;2023-04-03T10:37:34;1.98;;;0.80;;
44810;SDS011;30526;52.184;4.476;2023-04-03T10:40:17;2.45;;;1.27;;
44810;SDS011;30526;52.184;4.476;2023-04-03T10:58:23;2.50;;;0.93;;
44810;SDS011;30526;52.184;4.476;2023-04-03T11:00:51;1.55;;;0.70;;
44810;SDS011;30526;52.184;4.476;2023-04-03T11:05:56;1.57;;;0.50;;
44810;SDS011;30526;52.184;4.476;2023-04-03T11:08:28;4.95;;;0.75;;
44810;SDS011;30526;52.184;4.476;2023-04-03T11:11:09;3.42;;;1.10;;
44810;SDS011;30526;52.184;4.476;2023-04-03T11:13:40;1.45;;;1.00;;
44810;SDS011;30526;52.184;4.476;2023-04-03T11:16:13;3.30;;;1.00;;
44810;SDS011;30526;52.184;4.476;2023-04-03T11:19:11;2.97;;;0.77;;
44810;SDS011;30526;52.184;4.476;2023-04-03T11:21:35;2.10;;;0.70;;
44810;SDS011;30526;52.184;4.476;2023-04-03T11:24:04;1.15;;;0.60;;
44810;SDS011;30526;52.184;4.476;2023-04-03T11:26:39;2.17;;;0.73;;
44810;SDS011;30526;52.184;4.476;2023-04-03T11:29:13;1.27;;;0.50;;
44810;SDS011;30526;52.184;4.476;2023-04-03T11:34:39;0.90;;;0.70;;
44810;SDS011;30526;52.184;4.476;2023-04-03T11:39:48;1.23;;;0.70;;
44810;SDS011;30526;52.184;4.476;2023-04-03T11:42:22;1.98;;;0.80;;
44810;SDS011;30526;52.184;4.476;2023-04-03T11:44:51;1.45;;;0.98;;
44810;SDS011;30526;52.184;4.476;2023-04-03T11:47:45;3.80;;;0.57;;
44810;SDS011;30526;52.184;4.476;2023-04-03T11:50:59;1.90;;;0.65;;
44810;SDS011;30526;52.184;4.476;2023-04-03T12:01:00;2.17;;;0.90;;
44810;SDS011;30526;52.184;4.476;2023-04-03T12:13:38;1.90;;;0.68;;
44810;SDS011;30526;52.184;4.476;2023-04-03T12:16:05;1.88;;;0.68;;
44810;SDS011;30526;52.184;4.476;2023-04-03T12:19:24;1.05;;;0.70;;
44810;SDS011;30526;52.184;4.476;2023-04-03T12:29:21;1.35;;;0.60;;
44810;SDS011;30526;52.184;4.476;2023-04-03T12:34:54;1.27;;;0.67;;
44810;SDS011;30526;52.184;4.476;2023-04-03T12:43:02;2.60;;;0.77;;
44810;SDS011;30526;52.184;4.476;2023-04-03T12:45:40;4.57;;;0.90;;
44810;SDS011;30526;52.184;4.476;2023-04-03T12:48:08;2.67;;;0.80;;
44810;SDS011;30526;52.184;4.476;2023-04-03T12:50:38;1.15;;;0.70;;
44810;SDS011;30526;52.184;4.476;2023-04-03T12:53:10;1.30;;;0.60;;
44810;SDS011;30526;52.184;4.476;2023-04-03T12:55:37;2.95;;;0.90;;
44810;SDS011;30526;52.184;4.476;2023-04-03T12:58:16;1.08;;;0.60;;
44810;SDS011;30526;52.184;4.476;2023-04-03T13:00:43;1.88;;;0.90;;
44810;SDS011;30526;52.184;4.476;2023-04-03T13:03:20;1.87;;;1.10;;
44810;SDS011;30526;52.184;4.476;2023-04-03T13:05:47;2.72;;;0.95;;
44810;SDS011;30526;52.184;4.476;2023-04-03T13:08:13;2.67;;;1.23;;
44810;SDS011;30526;52.184;4.476;2023-04-03T13:10:55;2.83;;;1.00;;
44810;SDS011;30526;52.184;4.476;2023-04-03T13:13:21;1.80;;;0.85;;
44810;SDS011;30526;52.184;4.476;2023-04-03T13:15:48;1.35;;;0.80;;
44810;SDS011;30526;52.184;4.476;2023-04-03T13:18:31;1.42;;;0.80;;
44810;SDS011;30526;52.184;4.476;2023-04-03T13:21:15;2.35;;;0.93;;
44810;SDS011;30526;52.184;4.476;2023-04-03T13:23:43;1.67;;;0.90;;
44810;SDS011;30526;52.184;4.476;2023-04-03T13:26:10;2.28;;;1.17;;
44810;SDS011;30526;52.184;4.476;2023-04-03T13:28:38;3.30;;;1.00;;
44810;SDS011;30526;52.184;4.476;2023-04-03T13:33:53;1.65;;;0.80;;
44810;SDS011;30526;52.184;4.476;2023-04-03T13:36:21;1.92;;;1.10;;
44810;SDS011;30526;52.184;4.476;2023-04-03T13:39:17;2.08;;;0.95;;
44810;SDS011;30526;52.184;4.476;2023-04-03T13:41:38;1.60;;;0.73;;
44810;SDS011;30526;52.184;4.476;2023-04-03T13:44:15;3.00;;;1.00;;
44810;SDS011;30526;52.184;4.476;2023-04-03T13:46:41;1.73;;;0.85;;
44810;SDS011;30526;52.184;4.476;2023-04-03T13:52:20;1.10;;;1.00;;
44810;SDS011;30526;52.184;4.476;2023-04-03T13:54:48;1.52;;;0.85;;
44810;SDS011;30526;52.184;4.476;2023-04-03T13:57:17;2.13;;;1.23;;
44810;SDS011;30526;52.184;4.476;2023-04-03T13:59:43;1.65;;;1.05;;
44810;SDS011;30526;52.184;4.476;2023-04-03T14:02:12;4.82;;;1.05;;
44810;SDS011;30526;52.184;4.476;2023-04-03T14:07:06;2.97;;;0.82;;
44810;SDS011;30526;52.184;4.476;2023-04-03T14:09:32;1.57;;;0.93;;
44810;SDS011;30526;52.184;4.476;2023-04-03T14:14:41;1.35;;;0.80;;
44810;SDS011;30526;52.184;4.476;2023-04-03T14:22:05;3.30;;;1.00;;
44810;SDS011;30526;52.184;4.476;2023-04-03T14:24:32;2.55;;;1.10;;
44810;SDS011;30526;52.184;4.476;2023-04-03T14:26:59;1.85;;;1.00;;
44810;SDS011;30526;52.184;4.476;2023-04-03T14:29:25;2.10;;;0.90;;
44810;SDS011;30526;52.184;4.476;2023-04-03T14:31:51;1.52;;;1.00;;
44810;SDS011;30526;52.184;4.476;2023-04-03T14:34:17;3.50;;;0.90;;
44810;SDS011;30526;52.184;4.476;2023-04-03T14:36:44;1.50;;;0.83;;
44810;SDS011;30526;52.184;4.476;2023-04-03T14:39:13;2.38;;;1.40;;
44810;SDS011;30526;52.184;4.476;2023-04-03T14:41:42;1.55;;;0.90;;
44810;SDS011;30526;52.184;4.476;2023-04-03T14:44:08;1.50;;;0.80;;
44810;SDS011;30526;52.184;4.476;2023-04-03T14:46:35;2.08;;;1.15;;
44810;SDS011;30526;52.184;4.476;2023-04-03T14:49:02;2.67;;;1.10;;
44810;SDS011;30526;52.184;4.476;2023-04-03T14:51:32;1.85;;;0.90;;
44810;SDS011;30526;52.184;4.476;2023-04-03T14:53:58;5.95;;;1.08;;
44810;SDS011;30526;52.184;4.476;2023-04-03T14:56:25;3.17;;;1.00;;
44810;SDS011;30526;52.184;4.476;2023-04-03T14:58:54;2.20;;;1.05;;
44810;SDS011;30526;52.184;4.476;2023-04-03T15:01:21;1.40;;;1.00;;
44810;SDS011;30526;52.184;4.476;2023-04-03T15:03:47;4.15;;;1.20;;
44810;SDS011;30526;52.184;4.476;2023-04-03T15:06:13;1.38;;;0.90;;
44810;SDS011;30526;52.184;4.476;2023-04-03T15:08:40;2.35;;;1.08;;
44810;SDS011;30526;52.184;4.476;2023-04-03T15:13:33;3.50;;;1.20;;
44810;SDS011;30526;52.184;4.476;2023-04-03T15:15:59;1.60;;;1.10;;
44810;SDS011;30526;52.184;4.476;2023-04-03T15:18:25;2.57;;;1.27;;
44810;SDS011;30526;52.184;4.476;2023-04-03T15:20:52;2.10;;;1.10;;
44810;SDS011;30526;52.184;4.476;2023-04-03T15:23:19;3.00;;;1.30;;
44810;SDS011;30526;52.184;4.476;2023-04-03T15:25:46;2.20;;;1.00;;
44810;SDS011;30526;52.184;4.476;2023-04-03T15:30:48;2.30;;;1.10;;
44810;SDS011;30526;52.184;4.476;2023-04-03T15:33:14;1.75;;;0.93;;
44810;SDS011;30526;52.184;4.476;2023-04-03T15:35:40;2.58;;;1.23;;
44810;SDS011;30526;52.184;4.476;2023-04-03T15:38:06;2.35;;;1.08;;
44810;SDS011;30526;52.184;4.476;2023-04-03T15:40:33;1.93;;;1.17;;
44810;SDS011;30526;52.184;4.476;2023-04-03T15:42:59;2.97;;;1.00;;
44810;SDS011;30526;52.184;4.476;2023-04-03T15:45:25;3.17;;;1.23;;
44810;SDS011;30526;52.184;4.476;2023-04-03T15:47:53;2.58;;;0.90;;
44810;SDS011;30526;52.184;4.476;2023-04-03T15:50:19;2.63;;;1.15;;
44810;SDS011;30526;52.184;4.476;2023-04-03T15:52:48;1.48;;;1.38;;
44810;SDS011;30526;52.184;4.476;2023-04-03T15:55:19;3.40;;;1.58;;
44810;SDS011;30526;52.184;4.476;2023-04-03T15:57:45;1.70;;;0.90;;
44810;SDS011;30526;52.184;4.476;2023-04-03T16:00:11;2.33;;;0.95;;
44810;SDS011;30526;52.184;4.476;2023-04-03T16:02:37;2.08;;;1.35;;
44810;SDS011;30526;52.184;4.476;2023-04-03T16:05:03;2.53;;;1.30;;
44810;SDS011;30526;52.184;4.476;2023-04-03T16:07:30;2.33;;;1.23;;
44810;SDS011;30526;52.184;4.476;2023-04-03T16:09:56;3.00;;;1.50;;
44810;SDS011;30526;52.184;4.476;2023-04-03T16:12:22;3.15;;;1.30;;
44810;SDS011;30526;52.184;4.476;2023-04-03T16:14:48;2.77;;;1.20;;
44810;SDS011;30526;52.184;4.476;2023-04-03T16:17:14;3.43;;;1.40;;
44810;SDS011;30526;52.184;4.476;2023-04-03T16:19:40;3.55;;;1.23;;
44810;SDS011;30526;52.184;4.476;2023-04-03T16:22:06;3.90;;;1.47;;
44810;SDS011;30526;52.184;4.476;2023-04-03T16:24:32;3.13;;;1.10;;
44810;SDS011;30526;52.184;4.476;2023-04-03T16:26:58;2.57;;;1.13;;
44810;SDS011;30526;52.184;4.476;2023-04-03T16:29:24;2.95;;;1.27;;
44810;SDS011;30526;52.184;4.476;2023-04-03T16:31:50;4.32;;;1.55;;
44810;SDS011;30526;52.184;4.476;2023-04-03T16:34:16;1.70;;;1.20;;
44810;SDS011;30526;52.184;4.476;2023-04-03T16:36:42;2.33;;;1.17;;
44810;SDS011;30526;52.184;4.476;2023-04-03T16:39:08;2.50;;;1.23;;
44810;SDS011;30526;52.184;4.476;2023-04-03T16:41:35;3.23;;;1.30;;
44810;SDS011;30526;52.184;4.476;2023-04-03T16:44:01;4.55;;;1.55;;
44810;SDS011;30526;52.184;4.476;2023-04-03T16:46:27;3.53;;;1.20;;
44810;SDS011;30526;52.184;4.476;2023-04-03T16:48:53;4.18;;;1.25;;
44810;SDS011;30526;52.184;4.476;2023-04-03T16:51:19;4.00;;;1.70;;
44810;SDS011;30526;52.184;4.476;2023-04-03T16:53:45;3.25;;;1.35;;
44810;SDS011;30526;52.184;4.476;2023-04-03T16:56:11;1.70;;;1.13;;
44810;SDS011;30526;52.184;4.476;2023-04-03T16:58:37;1.30;;;1.15;;
44810;SDS011;30526;52.184;4.476;2023-04-03T17:01:11;4.13;;;1.38;;
44810;SDS011;30526;52.184;4.476;2023-04-03T17:03:37;2.50;;;1.20;;
44810;SDS011;30526;52.184;4.476;2023-04-03T17:06:03;3.60;;;1.40;;
44810;SDS011;30526;52.184;4.476;2023-04-03T17:08:29;1.33;;;1.10;;
44810;SDS011;30526;52.184;4.476;2023-04-03T17:10:55;2.88;;;1.25;;
44810;SDS011;30526;52.184;4.476;2023-04-03T17:13:21;2.10;;;1.30;;